Strona główna
METAR-TAF:

METAR-TAF

Lotnisko :

Port lotniczy Salt Lake City

Salt Lake City, Utah, Stany Zjednoczone

Szerokość geograficzna: 40-46-41N, Długość geograficzna: 111-58-10W, wysokość: 1288 m

Aktualna obserwacja pogody

Raport powstał 34 minut temu, godzina 12:54 UTC
Wiatr 5 kt od południowy wschód
Temperatura -4°C
Wilgotność 74%
Ciśnienie 1025 hPa
Widzialność: 16.1 km
bezchmurnie

METAR: KSLC 201254Z 14005KT 10SM CLR M04/M08 A3027 RMK AO2 SLP265 T10441078 VISNO NW RNWY $

czas: 06:28 (13:28 UTC)

Prognoza

Raport powstał 2 godziny i 8 minut temu, godzina 11:20 UTC
Prognoza ważna od 20 godzina 12 UTC do 21 godzina 18 UTC
Wiatr 5 kt od południowo-południowy wschód
Widzialność: 10 km
bezchmurnie
Od 20 godzina 1900 UTC
Wiatr 6 kt od północno-północny zachód
Widzialność: 10 km
Mało chmury na wysokości 20000 ft
Od 21 godzina 0300 UTC
Wiatr 5 kt od południowo-południowy wschód
Widzialność: 10 km
Mało chmury na wysokości 20000 ft

TAF: KSLC 201120Z 2012/2118 15005KT P6SM SKC FM201900 33006KT P6SM FEW200 FM210300 15005KT P6SM FEW200

Obserwacja i prognoza pogody dla ponad 4000 lotnisk (raport METAR i TAF).

Dostępne stacje oznaczono żółtymi i czerwonymi punktami na mapie.

Najedź kursorem aby zobaczyć nazwę stacji.

Kliknij aby zobaczyć obserwacje i prognozy pogody.

Aby zmienić mapę: kliknij na zielony przycisk z czarnym krzyżykiem, aby powiększyć; na zielony przycisk z myślnikiem, aby pomniejszyć; na zielone strzałki, aby przejść do map sąsiednich.


METAR-TAF: